Time;durP1;ratioP1;P1;durP2;ratioP2;P2;SDS_P1;SDS_P2;PMS_P1;PMS_P2;Temp;Humidity;BMP_temperature;BMP_pressure;BME280_temperature;BME280_humidity;BME280_pressure;Samples;Min_cycle;Max_cycle;Signal;HPM_P1;HPM_P2
2021/09/21 00:00:41;;;;;;;3.03;1.75;;;19.90;64.70;;;;;;10413707;28;20043;-61
2021/09/21 00:05:42;;;;;;;2.28;1.63;;;19.90;64.80;;;;;;10413685;28;20029;-60
2021/09/21 00:10:43;;;;;;;4.00;2.40;;;19.90;64.70;;;;;;10413437;28;20036;-61
2021/09/21 00:15:43;;;;;;;2.03;1.50;;;19.90;64.60;;;;;;10431828;28;20033;-61
2021/09/21 00:20:44;;;;;;;3.10;2.30;;;19.90;64.50;;;;;;10415745;28;20072;-62
2021/09/21 00:25:45;;;;;;;3.53;2.00;;;19.90;64.60;;;;;;10412919;28;20033;-61
2021/09/21 00:30:48;;;;;;;1.83;1.63;;;19.90;64.60;;;;;;10414325;28;20037;-61
2021/09/21 00:35:52;;;;;;;3.63;1.88;;;19.80;64.50;;;;;;10426308;28;20031;-62
2021/09/21 00:40:53;;;;;;;3.38;1.88;;;19.90;64.50;;;;;;10425435;28;20644;-61
2021/09/21 00:45:53;;;;;;;4.32;2.05;;;19.80;64.10;;;;;;10412579;28;20079;-61
2021/09/21 00:50:54;;;;;;;2.83;1.90;;;19.80;64.10;;;;;;10424862;28;20041;-62
2021/09/21 00:55:55;;;;;;;3.17;2.25;;;19.80;64.30;;;;;;10425624;28;20038;-62
2021/09/21 01:00:55;;;;;;;3.30;2.05;;;19.80;64.10;;;;;;10412544;28;20472;-62
2021/09/21 01:05:56;;;;;;;2.72;2.05;;;19.80;64.10;;;;;;10412602;28;20418;-61
2021/09/21 01:10:57;;;;;;;2.95;2.05;;;19.80;64.10;;;;;;10420374;28;20029;-61
2021/09/21 01:15:57;;;;;;;2.88;2.20;;;19.80;64.10;;;;;;10416525;28;20448;-62
2021/09/21 01:21:08;;;;;;;3.50;2.50;;;19.70;63.90;;;;;;10434059;28;20509;-61
2021/09/21 01:26:08;;;;;;;3.08;2.17;;;19.70;63.90;;;;;;10419415;28;20037;-60
2021/09/21 01:31:10;;;;;;;3.55;2.42;;;19.70;63.80;;;;;;10430531;28;20032;-62
2021/09/21 01:36:12;;;;;;;3.50;2.40;;;19.70;64.00;;;;;;10436165;28;20378;-61
2021/09/21 01:41:14;;;;;;;3.90;2.30;;;19.70;63.70;;;;;;10427922;28;20100;-61
2021/09/21 01:46:21;;;;;;;3.28;1.80;;;19.70;63.70;;;;;;10430635;28;20045;-61
2021/09/21 02:01:46;;;;;;;2.95;1.98;;;19.70;63.60;;;;;;10428824;28;20041;-61
2021/09/21 02:06:46;;;;;;;2.65;1.98;;;19.70;63.80;;;;;;10420562;28;20030;-61
2021/09/21 02:11:48;;;;;;;3.22;2.28;;;19.60;63.50;;;;;;10417946;28;20548;-62
2021/09/21 02:16:54;;;;;;;3.35;2.42;;;19.60;63.70;;;;;;10417821;28;20029;-61
2021/09/21 02:21:55;;;;;;;3.42;2.28;;;19.60;63.70;;;;;;10429611;28;20504;-62
2021/09/21 02:26:56;;;;;;;3.35;2.30;;;19.60;63.70;;;;;;10430242;28;20133;-61
2021/09/21 02:31:56;;;;;;;3.53;2.47;;;19.60;63.30;;;;;;10418345;28;20068;-61
2021/09/21 02:36:57;;;;;;;4.05;2.33;;;19.60;63.30;;;;;;10417080;28;20516;-61
2021/09/21 02:41:58;;;;;;;3.65;2.45;;;19.60;63.10;;;;;;10428989;28;20419;-61
2021/09/21 02:46:59;;;;;;;2.72;2.00;;;19.60;63.20;;;;;;10429467;28;20096;-62
2021/09/21 02:51:59;;;;;;;2.55;1.88;;;19.60;63.10;;;;;;10417522;28;20040;-61
2021/09/21 02:57:00;;;;;;;3.13;2.17;;;19.60;63.10;;;;;;10417255;28;20550;-61
2021/09/21 03:02:01;;;;;;;3.40;2.20;;;19.50;63.30;;;;;;10430552;28;20025;-61
2021/09/21 03:07:07;;;;;;;2.25;1.67;;;19.50;63.10;;;;;;10410326;28;20030;-61
2021/09/21 03:17:26;;;;;;;2.97;1.90;;;19.50;63.00;;;;;;10415632;28;20044;-61
2021/09/21 03:22:28;;;;;;;3.10;2.30;;;19.50;63.20;;;;;;10429321;28;20025;-62
2021/09/21 03:27:29;;;;;;;3.00;2.13;;;19.50;63.00;;;;;;10401739;28;20120;-62
2021/09/21 03:32:29;;;;;;;3.13;2.13;;;19.50;63.00;;;;;;10414572;28;20474;-61
2021/09/21 03:37:30;;;;;;;2.53;2.20;;;19.40;63.00;;;;;;10414748;28;20136;-61
2021/09/21 03:42:30;;;;;;;3.40;2.40;;;19.40;62.90;;;;;;10427484;28;20121;-61
2021/09/21 03:47:31;;;;;;;2.97;1.80;;;19.40;63.00;;;;;;10427285;28;20575;-61
2021/09/21 03:52:32;;;;;;;2.50;1.77;;;19.40;62.90;;;;;;10427635;28;20037;-61
2021/09/21 03:57:33;;;;;;;3.42;2.33;;;19.40;62.90;;;;;;10413729;28;20405;-62
2021/09/21 04:02:33;;;;;;;3.60;2.30;;;19.40;63.30;;;;;;10405491;28;20103;-62
2021/09/21 04:07:34;;;;;;;3.80;2.33;;;19.40;63.20;;;;;;10422378;28;20060;-62
2021/09/21 04:12:35;;;;;;;4.80;2.17;;;19.40;63.10;;;;;;10428140;28;20033;-62
2021/09/21 04:17:36;;;;;;;3.78;2.20;;;19.40;62.80;;;;;;10413306;28;20068;-62
2021/09/21 04:22:39;;;;;;;2.80;2.15;;;19.40;62.90;;;;;;10408863;28;20065;-61
2021/09/21 04:27:40;;;;;;;3.63;2.05;;;19.40;62.90;;;;;;10424094;28;20082;-62
2021/09/21 04:32:41;;;;;;;2.72;2.00;;;19.40;62.90;;;;;;10402954;28;20080;-61
2021/09/21 04:37:42;;;;;;;3.00;2.13;;;19.40;62.70;;;;;;10412841;28;20033;-62
2021/09/21 04:42:43;;;;;;;2.83;2.15;;;19.30;62.70;;;;;;10439557;28;20044;-61
2021/09/21 04:47:43;;;;;;;3.33;2.38;;;19.30;62.60;;;;;;10433850;28;20058;-62
2021/09/21 04:52:44;;;;;;;4.57;2.53;;;19.30;62.70;;;;;;10433007;28;20064;-62
2021/09/21 04:57:45;;;;;;;5.93;2.83;;;19.40;62.60;;;;;;10420740;28;20030;-61
2021/09/21 05:02:45;;;;;;;9.32;2.83;;;19.40;62.70;;;;;;10421519;28;20057;-62
2021/09/21 05:07:46;;;;;;;5.68;2.30;;;19.40;63.20;;;;;;10420717;28;20041;-60
2021/09/21 05:12:47;;;;;;;8.35;2.65;;;19.40;63.10;;;;;;10424795;28;21019;-62
2021/09/21 05:17:48;;;;;;;9.00;3.15;;;19.40;63.90;;;;;;10419508;28;20029;-65
2021/09/21 05:22:52;;;;;;;6.93;2.85;;;19.40;63.90;;;;;;10422039;28;20116;-64
2021/09/21 05:27:52;;;;;;;6.50;2.58;;;19.40;63.90;;;;;;10418515;28;20033;-65
2021/09/21 05:32:53;;;;;;;13.95;3.60;;;19.40;64.00;;;;;;10418617;28;20113;-64
2021/09/21 05:37:54;;;;;;;15.50;3.30;;;19.50;63.90;;;;;;10408424;28;20041;-64
2021/09/21 05:42:55;;;;;;;12.45;3.88;;;19.50;63.70;;;;;;10433857;28;20151;-63
2021/09/21 05:47:56;;;;;;;14.52;3.63;;;19.50;63.70;;;;;;10423560;28;20049;-66
2021/09/21 05:52:56;;;;;;;10.50;3.03;;;19.50;63.00;;;;;;10401384;28;20061;-62
2021/09/21 05:57:57;;;;;;;7.20;3.20;;;19.40;63.10;;;;;;10428587;28;20049;-63
2021/09/21 06:02:58;;;;;;;6.90;3.13;;;19.40;63.40;;;;;;10403553;28;20025;-64
2021/09/21 06:07:59;;;;;;;8.35;3.20;;;19.40;63.50;;;;;;10427685;28;20366;-64
2021/09/21 06:13:01;;;;;;;8.02;2.80;;;19.40;63.50;;;;;;10418911;28;20033;-64
2021/09/21 06:18:01;;;;;;;7.05;2.60;;;19.30;63.20;;;;;;10412946;28;20056;-65
2021/09/21 06:23:02;;;;;;;10.20;3.45;;;19.30;63.50;;;;;;10433027;28;20022;-68
2021/09/21 06:28:04;;;;;;;8.35;2.83;;;19.30;62.90;;;;;;10430264;28;20164;-64
2021/09/21 06:33:05;;;;;;;5.63;3.22;;;19.30;63.50;;;;;;10400117;28;20057;-64
2021/09/21 06:38:06;;;;;;;6.68;2.67;;;19.30;63.40;;;;;;10417481;28;20038;-67
2021/09/21 06:43:06;;;;;;;8.77;3.40;;;19.30;64.00;;;;;;10446611;28;20124;-67
2021/09/21 06:48:07;;;;;;;8.18;3.42;;;19.30;64.00;;;;;;10423763;28;20071;-67
2021/09/21 06:53:08;;;;;;;7.47;2.88;;;19.30;63.80;;;;;;10433015;28;20158;-65
2021/09/21 06:58:08;;;;;;;8.45;3.40;;;19.30;63.80;;;;;;10411411;28;20120;-66
2021/09/21 07:03:09;;;;;;;7.07;2.78;;;19.30;63.70;;;;;;10438018;28;20030;-66
2021/09/21 07:08:10;;;;;;;8.07;2.80;;;19.30;63.60;;;;;;10414691;28;20087;-67
2021/09/21 07:13:11;;;;;;;7.35;3.10;;;19.30;63.70;;;;;;10396622;28;20030;-65
2021/09/21 07:18:11;;;;;;;5.88;2.83;;;19.30;63.70;;;;;;10428647;28;20030;-67
2021/09/21 07:23:12;;;;;;;9.20;2.58;;;19.30;63.70;;;;;;10421014;28;20073;-66
2021/09/21 07:28:13;;;;;;;10.80;3.80;;;19.30;63.70;;;;;;10413489;28;20032;-66
2021/09/21 07:33:15;;;;;;;4.30;2.88;;;19.30;63.70;;;;;;10404532;28;20039;-64
2021/09/21 07:38:17;;;;;;;7.30;3.05;;;19.30;63.80;;;;;;10414367;28;20018;-64
2021/09/21 07:43:17;;;;;;;5.85;2.92;;;19.30;63.80;;;;;;10414081;28;20033;-66
2021/09/21 07:48:20;;;;;;;4.05;2.83;;;19.30;63.80;;;;;;10415097;28;20041;-66
2021/09/21 07:53:21;;;;;;;5.40;2.90;;;19.30;63.80;;;;;;10420827;28;20117;-65
2021/09/21 07:58:22;;;;;;;5.70;2.38;;;19.40;63.90;;;;;;10413527;28;20025;-66
2021/09/21 08:03:22;;;;;;;7.07;2.70;;;19.30;63.80;;;;;;10413306;28;20033;-64
2021/09/21 08:08:23;;;;;;;5.57;2.58;;;19.40;63.90;;;;;;10413396;28;20571;-65
2021/09/21 08:13:24;;;;;;;4.22;2.75;;;19.40;63.90;;;;;;10385882;28;20538;-65
2021/09/21 08:18:25;;;;;;;4.28;2.58;;;19.40;63.80;;;;;;10426128;28;20033;-66
2021/09/21 08:23:25;;;;;;;4.32;3.00;;;19.50;63.80;;;;;;10421302;28;20104;-67
2021/09/21 08:28:26;;;;;;;4.28;2.60;;;19.40;63.50;;;;;;10408942;28;20096;-67
2021/09/21 08:33:27;;;;;;;3.95;2.42;;;19.40;63.50;;;;;;10422197;28;20068;-67
2021/09/21 08:38:27;;;;;;;3.92;2.42;;;19.40;63.30;;;;;;10408781;28;20033;-67
2021/09/21 08:43:28;;;;;;;6.35;2.92;;;19.40;63.30;;;;;;10411022;28;20060;-67
2021/09/21 08:48:30;;;;;;;3.60;2.25;;;19.40;63.40;;;;;;10411588;28;20563;-68
2021/09/21 08:53:30;;;;;;;3.60;2.40;;;19.40;63.30;;;;;;10412184;28;20047;-68
2021/09/21 08:58:32;;;;;;;4.35;2.33;;;19.40;63.20;;;;;;10413327;28;20195;-68
2021/09/21 09:03:32;;;;;;;3.40;1.95;;;19.40;63.30;;;;;;10412347;28;20025;-66
2021/09/21 09:08:38;;;;;;;3.22;2.08;;;19.40;63.30;;;;;;10413237;28;20482;-68
2021/09/21 09:13:39;;;;;;;4.53;2.20;;;19.40;63.20;;;;;;10413182;28;20022;-68
2021/09/21 09:18:41;;;;;;;3.78;2.47;;;19.40;63.20;;;;;;10416529;28;20025;-67
2021/09/21 09:24:02;;;;;;;3.30;2.10;;;19.40;63.30;;;;;;10402961;28;20509;-67
2021/09/21 09:29:09;;;;;;;3.72;1.85;;;19.40;63.30;;;;;;10414994;28;20037;-68
2021/09/21 09:34:27;;;;;;;3.03;1.75;;;19.40;63.50;;;;;;10417133;28;20108;-67
2021/09/21 09:39:30;;;;;;;5.55;2.05;;;19.40;63.40;;;;;;10416592;28;20045;-68
2021/09/21 09:44:32;;;;;;;4.07;1.95;;;19.40;63.50;;;;;;10416094;28;20116;-67
2021/09/21 09:49:40;;;;;;;3.50;1.80;;;19.40;63.40;;;;;;10416000;28;20091;-67
2021/09/21 09:54:46;;;;;;;4.70;1.95;;;19.40;63.50;;;;;;10417037;28;20096;-67
2021/09/21 09:59:47;;;;;;;3.25;1.90;;;19.50;63.60;;;;;;10399086;28;20026;-67
2021/09/21 10:04:48;;;;;;;3.58;2.13;;;19.50;63.70;;;;;;10415395;28;20038;-67
2021/09/21 10:09:49;;;;;;;3.35;2.00;;;19.50;63.70;;;;;;10415272;28;20063;-67
2021/09/21 10:14:50;;;;;;;3.50;2.80;;;19.50;63.70;;;;;;10417734;28;20038;-67
2021/09/21 10:19:55;;;;;;;4.10;1.38;;;19.50;63.60;;;;;;10430077;28;20145;-67
2021/09/21 10:25:09;;;;;;;3.85;2.10;;;19.50;63.70;;;;;;10418488;28;20065;-67
2021/09/21 10:30:11;;;;;;;2.88;1.83;;;19.50;63.50;;;;;;10418361;28;20033;-68
2021/09/21 10:35:28;;;;;;;3.50;1.83;;;19.50;63.40;;;;;;10416434;28;20033;-68
2021/09/21 10:40:40;;;;;;;3.97;2.10;;;19.60;63.50;;;;;;10412631;28;20081;-67
2021/09/21 10:45:41;;;;;;;3.25;1.92;;;19.60;63.40;;;;;;10416694;28;20111;-66
2021/09/21 10:50:41;;;;;;;3.13;2.20;;;19.60;63.50;;;;;;10415906;28;20064;-68
2021/09/21 10:55:42;;;;;;;8.48;1.85;;;19.60;63.50;;;;;;10416119;28;20044;-68
2021/09/21 11:00:43;;;;;;;5.85;2.40;;;19.60;62.90;;;;;;10415731;28;20029;-69
2021/09/21 11:05:44;;;;;;;4.97;2.10;;;19.60;63.10;;;;;;10399359;28;20124;-71
2021/09/21 11:10:48;;;;;;;5.18;2.65;;;19.70;63.20;;;;;;10416456;28;20147;-69
2021/09/21 11:15:49;;;;;;;4.65;1.83;;;19.70;62.90;;;;;;10415429;28;20041;-69
2021/09/21 11:20:56;;;;;;;4.50;2.08;;;19.70;62.70;;;;;;10415178;28;20078;-69
2021/09/21 11:26:00;;;;;;;3.78;1.83;;;19.70;63.00;;;;;;10431676;28;20445;-69
2021/09/21 11:31:02;;;;;;;3.60;2.00;;;19.70;62.90;;;;;;10409961;28;20068;-73
2021/09/21 11:36:10;;;;;;;3.20;1.88;;;19.70;63.00;;;;;;10413493;28;20065;-71
2021/09/21 11:41:11;;;;;;;4.07;2.35;;;19.80;63.30;;;;;;10409934;28;20374;-70
2021/09/21 11:46:12;;;;;;;4.65;2.17;;;19.80;63.90;;;;;;10413299;28;20053;-71
2021/09/21 11:51:13;;;;;;;4.07;2.03;;;19.80;64.00;;;;;;10414260;28;20041;-71
2021/09/21 11:56:20;;;;;;;5.30;2.65;;;19.80;63.80;;;;;;10411209;28;20041;-69
2021/09/21 12:01:21;;;;;;;1.90;1.55;;;19.80;63.60;;;;;;10413253;28;20034;-70
2021/09/21 12:06:36;;;;;;;5.30;2.15;;;19.80;63.60;;;;;;10411721;28;20072;-69
2021/09/21 12:11:44;;;;;;;4.47;2.28;;;19.80;63.50;;;;;;10406706;28;20496;-65
2021/09/21 12:16:51;;;;;;;3.63;1.92;;;19.90;63.60;;;;;;10412637;28;20033;-67
2021/09/21 12:21:59;;;;;;;7.85;2.35;;;19.90;63.50;;;;;;10416964;28;20053;-67
2021/09/21 12:27:04;;;;;;;8.00;2.60;;;19.90;63.20;;;;;;10413235;28;20084;-68
2021/09/21 12:32:05;;;;;;;10.93;2.53;;;19.90;63.00;;;;;;10421413;28;20037;-68
2021/09/21 12:37:06;;;;;;;9.25;3.33;;;19.90;62.90;;;;;;10412821;28;20045;-69
2021/09/21 12:42:09;;;;;;;7.88;2.75;;;19.90;62.90;;;;;;10413410;28;20033;-69
2021/09/21 12:47:09;;;;;;;5.82;2.58;;;19.90;63.00;;;;;;10412319;28;20081;-69
2021/09/21 12:52:10;;;;;;;7.28;2.95;;;19.90;63.00;;;;;;10404875;28;20409;-70
2021/09/21 12:57:11;;;;;;;9.63;2.90;;;19.90;62.80;;;;;;10408076;28;20083;-71
2021/09/21 13:02:11;;;;;;;5.45;2.60;;;19.90;63.00;;;;;;10412908;28;20470;-71
2021/09/21 13:07:12;;;;;;;7.85;2.92;;;19.90;63.00;;;;;;10419149;28;20045;-68
2021/09/21 13:12:13;;;;;;;7.32;2.90;;;19.90;62.90;;;;;;10418988;28;20037;-66
2021/09/21 13:17:14;;;;;;;9.30;3.33;;;19.90;62.80;;;;;;10409822;28;20026;-66
2021/09/21 13:22:14;;;;;;;6.95;2.90;;;19.90;62.90;;;;;;10418542;28;20112;-68
2021/09/21 13:27:15;;;;;;;5.55;2.83;;;19.90;62.90;;;;;;10419091;28;20116;-69
2021/09/21 13:32:16;;;;;;;5.28;2.80;;;19.90;62.90;;;;;;10419229;28;20033;-71
2021/09/21 13:37:16;;;;;;;12.98;6.72;;;19.90;63.00;;;;;;10419064;28;20116;-66
2021/09/21 13:42:17;;;;;;;9.13;3.42;;;19.90;64.90;;;;;;10418896;28;20048;-66
2021/09/21 13:47:18;;;;;;;10.15;4.75;;;20.00;63.30;;;;;;10418359;28;20140;-67
2021/09/21 13:52:19;;;;;;;8.43;5.07;;;20.00;63.50;;;;;;10419243;28;20079;-64
2021/09/21 13:57:20;;;;;;;16.23;5.35;;;20.00;63.70;;;;;;10418919;28;20352;-64
2021/09/21 14:02:20;;;;;;;25.50;13.07;;;19.90;64.30;;;;;;10417877;28;20064;-63
2021/09/21 14:07:21;;;;;;;16.83;6.57;;;20.10;74.00;;;;;;10417434;28;20104;-64
2021/09/21 14:12:22;;;;;;;18.02;7.03;;;20.10;66.40;;;;;;10400906;28;20029;-65
2021/09/21 14:17:22;;;;;;;8.68;5.85;;;20.00;66.40;;;;;;10417229;28;20120;-65
2021/09/21 14:22:23;;;;;;;20.02;7.03;;;20.00;66.20;;;;;;10423345;28;20389;-65
2021/09/21 14:27:26;;;;;;;10.38;4.75;;;20.00;66.20;;;;;;10400399;28;20037;-65
2021/09/21 14:32:27;;;;;;;10.15;5.45;;;20.00;66.00;;;;;;10417121;28;20033;-64
2021/09/21 14:37:28;;;;;;;10.25;5.32;;;20.00;66.00;;;;;;10417224;28;20033;-65
2021/09/21 14:42:28;;;;;;;18.98;6.85;;;20.00;65.80;;;;;;10416751;28;20116;-65
2021/09/21 14:47:29;;;;;;;15.05;5.88;;;20.00;65.70;;;;;;10417335;28;20130;-64
2021/09/21 14:52:30;;;;;;;10.05;4.00;;;20.00;65.50;;;;;;10389825;28;20099;-65
2021/09/21 14:57:31;;;;;;;17.63;4.40;;;20.00;65.40;;;;;;10414386;28;20034;-64
2021/09/21 15:02:31;;;;;;;11.10;4.28;;;19.90;65.30;;;;;;10413797;28;20108;-64
2021/09/21 15:07:32;;;;;;;12.98;4.85;;;19.90;65.20;;;;;;10415053;28;20116;-65
2021/09/21 15:12:33;;;;;;;8.02;4.18;;;19.90;65.20;;;;;;10415047;28;20041;-64
2021/09/21 15:17:37;;;;;;;7.93;3.83;;;19.90;65.10;;;;;;10415924;28;20026;-64
2021/09/21 15:22:40;;;;;;;11.63;3.80;;;19.90;65.10;;;;;;10426157;28;20029;-64
2021/09/21 15:27:41;;;;;;;9.30;4.00;;;19.90;65.00;;;;;;10415103;28;20409;-64
2021/09/21 15:32:43;;;;;;;8.50;4.28;;;19.90;65.00;;;;;;10415547;28;20092;-64
2021/09/21 15:37:45;;;;;;;5.38;3.15;;;19.90;65.00;;;;;;10413695;28;20466;-64
2021/09/21 15:42:47;;;;;;;5.47;3.38;;;19.90;65.00;;;;;;10397734;28;20052;-64
2021/09/21 15:47:48;;;;;;;7.82;2.80;;;19.90;64.90;;;;;;10400070;28;20121;-63
2021/09/21 15:52:49;;;;;;;10.05;3.30;;;19.90;64.90;;;;;;10413709;28;20029;-63
2021/09/21 15:57:50;;;;;;;21.15;4.95;;;19.90;64.90;;;;;;10409346;28;20065;-61
2021/09/21 16:02:51;;;;;;;10.75;3.97;;;19.90;65.00;;;;;;10411174;28;20060;-64
2021/09/21 16:07:59;;;;;;;11.70;3.70;;;19.90;64.10;;;;;;10412265;28;20029;-62
2021/09/21 16:13:03;;;;;;;16.20;4.13;;;19.90;63.40;;;;;;10412384;28;20033;-62
2021/09/21 16:18:04;;;;;;;12.35;3.85;;;20.00;65.70;;;;;;10414349;28;20042;-65
2021/09/21 16:23:06;;;;;;;16.17;4.70;;;20.00;66.40;;;;;;10425060;28;20017;-66
2021/09/21 16:28:09;;;;;;;13.35;4.75;;;20.00;66.00;;;;;;10412875;28;20776;-63
2021/09/21 16:33:13;;;;;;;11.18;3.97;;;20.00;66.10;;;;;;10396686;28;20083;-63
2021/09/21 16:38:16;;;;;;;14.77;4.10;;;20.10;66.20;;;;;;10422730;28;20124;-63
2021/09/21 16:43:21;;;;;;;24.48;4.57;;;20.10;65.80;;;;;;10421323;28;20052;-61
2021/09/21 16:48:21;;;;;;;10.52;3.83;;;20.00;64.90;;;;;;10418214;28;20133;-62
2021/09/21 16:53:24;;;;;;;17.90;3.85;;;20.00;65.00;;;;;;10420360;28;20454;-63
2021/09/21 16:58:24;;;;;;;12.43;3.25;;;20.00;65.00;;;;;;10420675;28;20393;-62
2021/09/21 17:03:26;;;;;;;12.15;4.35;;;20.00;65.00;;;;;;10420806;28;20025;-60
2021/09/21 17:08:28;;;;;;;10.05;3.50;;;19.90;65.70;;;;;;10421180;28;20026;-60
2021/09/21 17:13:29;;;;;;;11.82;4.05;;;19.90;65.00;;;;;;10421170;28;20037;-60
2021/09/21 17:18:29;;;;;;;11.57;3.55;;;19.90;65.00;;;;;;10421751;28;20033;-61
2021/09/21 17:23:30;;;;;;;9.70;3.80;;;19.90;65.10;;;;;;10429332;28;20544;-61
2021/09/21 17:28:31;;;;;;;11.00;3.50;;;19.90;65.20;;;;;;10416976;28;20104;-61
2021/09/21 17:33:32;;;;;;;12.05;3.70;;;19.90;65.30;;;;;;10413821;28;20079;-60
2021/09/21 17:38:32;;;;;;;14.48;3.00;;;20.00;65.80;;;;;;10415985;28;20064;-61
2021/09/21 17:43:33;;;;;;;7.05;3.40;;;19.90;65.90;;;;;;10406851;28;20036;-60
2021/09/21 17:48:34;;;;;;;9.75;3.20;;;19.90;66.10;;;;;;10419165;28;20056;-61
2021/09/21 17:53:34;;;;;;;8.45;3.13;;;19.90;66.10;;;;;;10419156;28;20065;-59
2021/09/21 17:58:35;;;;;;;9.73;3.60;;;19.90;66.20;;;;;;10401605;28;20056;-60
2021/09/21 18:03:36;;;;;;;9.52;3.35;;;19.90;66.30;;;;;;10417901;28;20124;-61
2021/09/21 18:08:36;;;;;;;6.40;3.88;;;19.80;66.30;;;;;;10418668;28;20053;-60
2021/09/21 18:13:38;;;;;;;6.63;3.50;;;19.90;67.30;;;;;;10417375;28;20061;-61
2021/09/21 18:19:59;;;;;;;10.30;3.45;;;19.90;67.30;;;;;;10421205;28;20052;-60
2021/09/21 18:24:59;;;;;;;7.95;3.13;;;19.90;67.90;;;;;;10407399;28;20034;-61
2021/09/21 18:30:00;;;;;;;4.78;3.28;;;19.90;67.80;;;;;;10418268;28;20116;-61
2021/09/21 18:35:01;;;;;;;7.05;3.15;;;19.90;67.90;;;;;;10400128;28;20489;-61
2021/09/21 18:40:04;;;;;;;5.70;3.28;;;19.90;67.90;;;;;;10411334;28;20029;-60
2021/09/21 18:45:06;;;;;;;4.72;3.17;;;19.90;67.80;;;;;;10414421;28;20059;-60
2021/09/21 18:50:10;;;;;;;5.22;2.92;;;19.90;68.00;;;;;;10416183;28;20033;-61
2021/09/21 18:55:14;;;;;;;6.50;3.10;;;19.90;67.60;;;;;;10416143;28;20029;-60
2021/09/21 19:00:18;;;;;;;7.93;2.97;;;19.90;67.80;;;;;;10406089;28;20041;-59
2021/09/21 19:05:19;;;;;;;4.88;2.50;;;19.90;68.60;;;;;;10415646;28;20025;-59
2021/09/21 19:10:20;;;;;;;4.55;2.33;;;19.90;67.80;;;;;;10403896;28;20040;-60
2021/09/21 19:15:28;;;;;;;5.63;2.63;;;19.90;67.40;;;;;;10415207;28;20032;-60
2021/09/21 19:20:29;;;;;;;5.18;2.33;;;19.90;67.30;;;;;;10422978;28;20056;-60
2021/09/21 19:25:30;;;;;;;6.53;2.88;;;19.80;67.20;;;;;;10405521;28;20033;-60
2021/09/21 19:30:31;;;;;;;7.32;2.75;;;19.80;67.10;;;;;;10406672;28;20045;-60
2021/09/21 19:35:32;;;;;;;4.78;2.22;;;19.80;66.90;;;;;;10403110;28;20018;-60
2021/09/21 19:40:32;;;;;;;3.92;2.45;;;19.80;66.80;;;;;;10413307;28;20033;-60
2021/09/21 19:45:33;;;;;;;3.63;2.20;;;19.80;66.70;;;;;;10413070;28;20041;-60
2021/09/21 19:50:35;;;;;;;3.08;2.25;;;19.80;66.60;;;;;;10412538;28;20037;-61
2021/09/21 19:55:38;;;;;;;6.32;2.85;;;19.70;66.60;;;;;;10413360;28;20037;-60
2021/09/21 20:00:40;;;;;;;5.85;2.88;;;19.70;66.50;;;;;;10410392;28;20037;-59
2021/09/21 20:05:40;;;;;;;6.72;2.40;;;19.70;66.40;;;;;;10405394;28;20466;-60
2021/09/21 20:10:42;;;;;;;4.03;2.60;;;19.70;66.30;;;;;;10413697;28;20071;-60
2021/09/21 20:15:42;;;;;;;5.93;2.75;;;19.70;66.30;;;;;;10414270;28;20029;-60
2021/09/21 20:20:43;;;;;;;5.18;2.53;;;19.70;66.30;;;;;;10413201;28;20469;-60
2021/09/21 20:25:44;;;;;;;3.40;2.20;;;19.70;66.30;;;;;;10413033;28;20175;-61
2021/09/21 20:30:45;;;;;;;4.43;2.42;;;19.70;66.20;;;;;;10413651;28;20041;-60
2021/09/21 20:36:03;;;;;;;5.97;2.45;;;19.60;66.00;;;;;;10411656;28;20453;-60
2021/09/21 20:41:03;;;;;;;3.38;1.80;;;19.60;66.00;;;;;;10413627;28;20373;-60
2021/09/21 20:46:04;;;;;;;3.65;2.25;;;19.60;66.00;;;;;;10413416;28;20120;-60
2021/09/21 20:51:10;;;;;;;4.40;2.00;;;19.60;66.10;;;;;;10412063;28;20044;-61
2021/09/21 20:56:11;;;;;;;4.65;2.13;;;19.60;66.10;;;;;;10412077;28;20029;-60
2021/09/21 21:01:12;;;;;;;4.38;2.42;;;19.60;66.00;;;;;;10412103;28;20064;-61
2021/09/21 21:06:12;;;;;;;4.90;2.40;;;19.60;66.00;;;;;;10412061;28;20124;-60
2021/09/21 21:11:13;;;;;;;3.00;1.80;;;19.60;65.90;;;;;;10411561;28;20485;-61
2021/09/21 21:16:14;;;;;;;3.55;2.22;;;19.60;65.80;;;;;;10411649;28;20065;-60
2021/09/21 21:21:15;;;;;;;3.38;2.13;;;19.60;65.80;;;;;;10414071;28;20037;-61
2021/09/21 21:26:16;;;;;;;2.67;1.80;;;19.50;65.80;;;;;;10418298;28;20061;-60
2021/09/21 21:31:17;;;;;;;4.68;2.13;;;19.50;65.70;;;;;;10420356;28;20144;-60
2021/09/21 21:36:18;;;;;;;3.45;2.28;;;19.50;65.70;;;;;;10418965;28;20465;-60
2021/09/21 21:41:22;;;;;;;3.00;1.92;;;19.50;65.70;;;;;;10418683;28;20037;-60
2021/09/21 21:46:23;;;;;;;3.20;1.92;;;19.50;65.80;;;;;;10418675;28;20049;-60
2021/09/21 21:51:23;;;;;;;3.97;1.90;;;19.50;65.70;;;;;;10418268;28;20056;-61
2021/09/21 21:56:24;;;;;;;2.88;1.85;;;19.50;65.70;;;;;;10418063;28;20068;-60
2021/09/21 22:01:25;;;;;;;2.85;2.08;;;19.50;65.70;;;;;;10417941;28;20033;-60
2021/09/21 22:06:26;;;;;;;3.63;1.90;;;19.50;65.70;;;;;;10418228;28;20498;-60
2021/09/21 22:11:26;;;;;;;3.33;2.00;;;19.50;65.70;;;;;;10417696;28;20033;-61
2021/09/21 22:16:28;;;;;;;3.25;1.70;;;19.50;65.70;;;;;;10417537;28;20462;-61
2021/09/21 22:21:29;;;;;;;3.47;1.98;;;19.40;65.70;;;;;;10418508;28;20053;-60
2021/09/21 22:26:30;;;;;;;2.53;1.98;;;19.40;65.70;;;;;;10417924;28;20138;-61
2021/09/21 22:31:31;;;;;;;5.90;2.05;;;19.40;65.70;;;;;;10417927;28;20462;-60
2021/09/21 22:36:31;;;;;;;3.08;2.13;;;19.40;65.60;;;;;;10417948;28;20056;-60
2021/09/21 22:41:34;;;;;;;2.53;1.80;;;19.40;65.70;;;;;;10416312;28;20037;-60
2021/09/21 22:46:35;;;;;;;3.33;2.03;;;19.40;65.60;;;;;;10409941;28;20525;-60
2021/09/21 22:51:36;;;;;;;2.78;2.08;;;19.40;65.60;;;;;;10417173;28;20032;-61
2021/09/21 22:56:37;;;;;;;3.58;2.30;;;19.40;65.60;;;;;;10415790;28;20068;-60
2021/09/21 23:01:37;;;;;;;2.92;2.00;;;19.40;65.60;;;;;;10415438;28;20041;-60
2021/09/21 23:06:38;;;;;;;3.20;2.15;;;19.40;65.60;;;;;;10416746;28;20080;-60
2021/09/21 23:11:39;;;;;;;3.28;2.10;;;19.40;65.50;;;;;;10416577;28;20112;-61
2021/09/21 23:16:39;;;;;;;3.00;1.92;;;19.40;65.50;;;;;;10416204;28;20475;-61
2021/09/21 23:21:40;;;;;;;2.45;1.77;;;19.40;65.50;;;;;;10415551;28;20029;-60
2021/09/21 23:26:41;;;;;;;2.13;1.58;;;19.30;65.40;;;;;;10416092;28;20033;-62
2021/09/21 23:31:42;;;;;;;3.47;2.30;;;19.30;65.40;;;;;;10414373;28;20100;-61
2021/09/21 23:36:43;;;;;;;2.20;1.70;;;19.40;65.50;;;;;;10414074;28;20041;-61
2021/09/21 23:41:43;;;;;;;2.60;1.90;;;19.30;65.60;;;;;;10408580;28;20030;-60
2021/09/21 23:46:46;;;;;;;2.58;2.00;;;19.30;65.50;;;;;;10414471;28;20064;-61
2021/09/21 23:51:47;;;;;;;2.80;1.80;;;19.30;65.60;;;;;;10414979;28;20099;-61
2021/09/21 23:56:48;;;;;;;3.70;2.30;;;19.30;65.50;;;;;;10413559;28;20111;-61
